createdAt,value
2023-02-06T00:03:52.334Z,528
2023-02-06T00:33:55.887Z,525
2023-02-06T02:33:44.673Z,562
2023-02-06T03:03:44.330Z,577
2023-02-06T03:33:46.734Z,549
2023-02-06T04:04:06.286Z,518
2023-02-06T05:03:51.926Z,476
2023-02-06T05:33:45.100Z,479
2023-02-06T06:03:45.139Z,479
2023-02-06T06:33:48.933Z,475
2023-02-06T07:03:41.881Z,477
2023-02-06T07:33:44.026Z,479
2023-02-06T08:03:51.726Z,482
2023-02-06T09:03:44.745Z,476
2023-02-06T09:33:44.837Z,474
2023-02-06T10:03:46.845Z,470
2023-02-06T10:33:46.200Z,468
2023-02-06T11:03:49.963Z,469
2023-02-06T11:33:46.642Z,471
2023-02-06T12:03:43.625Z,468
2023-02-06T12:33:41.058Z,467
2023-02-06T13:03:48.874Z,464
2023-02-06T13:33:49.141Z,464
2023-02-06T14:03:47.784Z,460
2023-02-06T14:33:46.345Z,458
2023-02-06T15:03:47.768Z,460
2023-02-06T15:33:39.756Z,456
2023-02-06T16:03:47.432Z,457
2023-02-06T16:33:44.935Z,464
2023-02-06T17:03:44.182Z,472
2023-02-06T17:33:42.170Z,472
2023-02-06T18:03:48.181Z,485
2023-02-06T18:03:48.495Z,485
2023-02-06T18:33:45.220Z,487
2023-02-06T19:03:43.281Z,483
2023-02-06T19:33:43.160Z,489
2023-02-06T20:03:40.914Z,495
2023-02-06T20:33:38.772Z,499
2023-02-06T21:03:39.927Z,515
2023-02-06T21:33:43.900Z,502
2023-02-06T22:03:33.282Z,503
2023-02-06T22:33:32.953Z,516
2023-02-06T23:03:38.514Z,521
2023-02-06T23:33:38.640Z,503
